Time;durP1;ratioP1;P1;durP2;ratioP2;P2;SDS_P1;SDS_P2;PMS_P1;PMS_P2;Temp;Humidity;BMP_temperature;BMP_pressure;BME280_temperature;BME280_humidity;BME280_pressure;Samples;Min_cycle;Max_cycle;Signal;HPM_P1;HPM_P2
2023/07/20 00:01:27;;;;;;;7.32;4.75;;;;;;;;;;5107755;27;20048;-77
2023/07/20 00:03:56;;;;;;;6.00;4.00;;;;;;;;;;5085899;27;20032;-77
2023/07/20 00:06:23;;;;;;;6.40;4.30;;;;;;;;;;5110019;27;20150;-77
2023/07/20 00:08:49;;;;;;;5.22;4.72;;;;;;;;;;5083863;27;20429;-77
2023/07/20 00:11:16;;;;;;;6.90;4.25;;;;;;;;;;5087242;27;20107;-77
2023/07/20 00:13:42;;;;;;;6.43;4.38;;;;;;;;;;5106359;27;20031;-77
2023/07/20 00:16:08;;;;;;;5.22;3.83;;;;;;;;;;5091217;27;20039;-77
2023/07/20 00:18:34;;;;;;;7.72;4.15;;;;;;;;;;5064273;27;20158;-77
2023/07/20 00:21:01;;;;;;;4.55;3.33;;;;;;;;;;5106950;27;20982;-77
2023/07/20 00:23:27;;;;;;;7.85;3.53;;;;;;;;;;5084253;27;20129;-76
2023/07/20 00:25:53;;;;;;;5.82;3.30;;;;;;;;;;5087707;27;20050;-77
2023/07/20 00:28:19;;;;;;;4.25;3.30;;;;;;;;;;5103703;27;21463;-77
2023/07/20 00:30:46;;;;;;;6.28;3.25;;;;;;;;;;5105221;27;20514;-77
2023/07/20 00:33:12;;;;;;;4.68;2.78;;;;;;;;;;5104842;27;20075;-77
2023/07/20 00:35:39;;;;;;;3.38;2.95;;;;;;;;;;5083357;27;20559;-76
2023/07/20 00:38:05;;;;;;;6.97;3.10;;;;;;;;;;5106056;27;20043;-76
2023/07/20 00:40:41;;;;;;;5.85;3.00;;;;;;;;;;5087076;27;20176;-77
2023/07/20 00:43:07;;;;;;;6.93;2.80;;;;;;;;;;5086341;27;20043;-77
2023/07/20 00:45:37;;;;;;;5.97;2.83;;;;;;;;;;5084606;27;20122;-77
2023/07/20 00:48:04;;;;;;;3.25;2.75;;;;;;;;;;5102560;27;20035;-76
2023/07/20 00:50:31;;;;;;;8.82;3.25;;;;;;;;;;5085963;27;20043;-77
2023/07/20 00:52:58;;;;;;;6.65;3.47;;;;;;;;;;5081481;27;20054;-77
2023/07/20 00:55:25;;;;;;;7.03;2.97;;;;;;;;;;5069663;27;20104;-77
2023/07/20 00:57:51;;;;;;;7.03;2.83;;;;;;;;;;5087800;27;20039;-77
2023/07/20 01:00:18;;;;;;;2.70;2.42;;;;;;;;;;5073374;27;20051;-77
2023/07/20 01:02:45;;;;;;;9.35;2.63;;;;;;;;;;5085999;27;20043;-77
2023/07/20 01:05:12;;;;;;;5.75;3.05;;;;;;;;;;5088160;27;21006;-76
2023/07/20 01:07:57;;;;;;;8.20;2.72;;;;;;;;;;5081885;27;20039;-76
2023/07/20 01:10:32;;;;;;;3.47;2.40;;;;;;;;;;5085726;27;20043;-76
2023/07/20 01:12:58;;;;;;;6.32;2.63;;;;;;;;;;5104044;27;20039;-77
2023/07/20 01:15:24;;;;;;;10.63;3.13;;;;;;;;;;5086478;27;20046;-76
2023/07/20 01:17:50;;;;;;;3.80;2.88;;;;;;;;;;5104352;27;20491;-77
2023/07/20 01:20:18;;;;;;;8.73;3.33;;;;;;;;;;5072741;27;20077;-77
2023/07/20 01:22:44;;;;;;;6.30;2.75;;;;;;;;;;5089065;27;20034;-76
2023/07/20 01:25:17;;;;;;;5.47;2.95;;;;;;;;;;5085668;27;20395;-77
2023/07/20 01:27:46;;;;;;;4.75;3.05;;;;;;;;;;5086487;27;20180;-77
2023/07/20 01:30:31;;;;;;;5.03;3.20;;;;;;;;;;5082698;27;20153;-76
2023/07/20 01:32:58;;;;;;;5.65;2.90;;;;;;;;;;5102524;27;21916;-76
2023/07/20 01:35:27;;;;;;;6.38;3.20;;;;;;;;;;5103087;27;20050;-76
2023/07/20 01:37:54;;;;;;;10.05;3.17;;;;;;;;;;5103870;27;20077;-77
2023/07/20 01:40:20;;;;;;;7.93;3.92;;;;;;;;;;5085283;27;20070;-77
2023/07/20 01:42:47;;;;;;;3.88;2.90;;;;;;;;;;5100919;27;20046;-77
2023/07/20 01:45:13;;;;;;;12.68;3.50;;;;;;;;;;5103201;27;20035;-77
2023/07/20 01:47:39;;;;;;;6.57;2.65;;;;;;;;;;5099310;27;20043;-77
2023/07/20 01:50:06;;;;;;;4.80;2.67;;;;;;;;;;5086655;28;20053;-77
2023/07/20 01:52:32;;;;;;;4.80;2.80;;;;;;;;;;5101295;27;20117;-77
2023/07/20 01:54:58;;;;;;;7.78;2.53;;;;;;;;;;5103453;27;20039;-76
2023/07/20 01:57:24;;;;;;;10.13;2.65;;;;;;;;;;5064709;28;20043;-76
2023/07/20 01:59:50;;;;;;;7.05;2.85;;;;;;;;;;5085107;28;20136;-76
2023/07/20 02:02:16;;;;;;;10.15;2.35;;;;;;;;;;5085027;27;20044;-76
2023/07/20 02:04:43;;;;;;;6.05;2.15;;;;;;;;;;5105303;27;20049;-76
2023/07/20 02:07:09;;;;;;;8.13;2.25;;;;;;;;;;5083618;28;20047;-76
2023/07/20 02:09:35;;;;;;;8.75;2.20;;;;;;;;;;5088809;28;20051;-76
2023/07/20 02:12:01;;;;;;;7.68;2.65;;;;;;;;;;5098665;27;20482;-76
2023/07/20 02:14:27;;;;;;;7.40;2.15;;;;;;;;;;5083179;28;20108;-76
2023/07/20 02:16:57;;;;;;;4.93;2.00;;;;;;;;;;5082173;28;20058;-76
2023/07/20 02:19:26;;;;;;;5.47;1.90;;;;;;;;;;5065377;28;20055;-76
2023/07/20 02:21:52;;;;;;;8.35;2.03;;;;;;;;;;5105013;27;20536;-76
2023/07/20 02:24:18;;;;;;;6.95;2.30;;;;;;;;;;5084400;28;20046;-76
2023/07/20 02:26:44;;;;;;;10.13;2.58;;;;;;;;;;5101091;27;20043;-76
2023/07/20 02:29:13;;;;;;;7.90;2.22;;;;;;;;;;5102291;27;20047;-76
2023/07/20 02:31:40;;;;;;;12.15;2.13;;;;;;;;;;5083074;28;20042;-76
2023/07/20 02:34:06;;;;;;;8.13;2.20;;;;;;;;;;5086913;27;20078;-76
2023/07/20 02:36:33;;;;;;;12.85;2.35;;;;;;;;;;5086599;27;20134;-76
2023/07/20 02:38:59;;;;;;;12.25;2.50;;;;;;;;;;5086147;27;20039;-76
2023/07/20 02:41:25;;;;;;;7.47;2.72;;;;;;;;;;5083358;27;20115;-76
2023/07/20 02:43:51;;;;;;;7.88;2.35;;;;;;;;;;5089862;27;20050;-76
2023/07/20 02:46:17;;;;;;;11.45;2.72;;;;;;;;;;5107299;27;20039;-76
2023/07/20 02:48:43;;;;;;;9.70;2.20;;;;;;;;;;5089188;27;20039;-76
2023/07/20 02:51:11;;;;;;;14.93;2.83;;;;;;;;;;5084607;27;20055;-76
2023/07/20 02:53:37;;;;;;;9.27;2.60;;;;;;;;;;5104007;27;20051;-76
2023/07/20 02:56:04;;;;;;;12.55;2.55;;;;;;;;;;5083218;27;20070;-76
2023/07/20 02:58:30;;;;;;;12.43;3.03;;;;;;;;;;5104979;27;20084;-76
2023/07/20 03:00:56;;;;;;;8.43;2.33;;;;;;;;;;5087233;27;20051;-76
2023/07/20 03:03:22;;;;;;;16.20;2.50;;;;;;;;;;5084988;27;20085;-77
2023/07/20 03:05:54;;;;;;;17.60;2.33;;;;;;;;;;5070706;27;20039;-76
2023/07/20 03:08:20;;;;;;;14.35;2.20;;;;;;;;;;5104784;27;20935;-76
2023/07/20 03:10:46;;;;;;;11.50;2.00;;;;;;;;;;5088061;27;20038;-76
2023/07/20 03:13:14;;;;;;;8.00;2.25;;;;;;;;;;5103099;27;20133;-75
2023/07/20 03:15:40;;;;;;;8.40;2.20;;;;;;;;;;5086810;27;20058;-76
2023/07/20 03:18:06;;;;;;;7.65;2.40;;;;;;;;;;5088032;27;20142;-77
2023/07/20 03:20:32;;;;;;;8.90;2.40;;;;;;;;;;5086771;27;20096;-76
2023/07/20 03:22:58;;;;;;;12.90;2.17;;;;;;;;;;5086682;27;20050;-76
2023/07/20 03:25:24;;;;;;;13.98;2.72;;;;;;;;;;5086224;27;20096;-75
2023/07/20 03:27:50;;;;;;;18.08;2.30;;;;;;;;;;5086967;27;20035;-77
2023/07/20 03:30:17;;;;;;;10.65;3.20;;;;;;;;;;5086466;27;20043;-77
2023/07/20 03:32:43;;;;;;;14.60;2.67;;;;;;;;;;5066239;27;20058;-77
2023/07/20 03:35:09;;;;;;;12.23;2.50;;;;;;;;;;5086517;27;20054;-77
2023/07/20 03:37:36;;;;;;;14.40;2.45;;;;;;;;;;5103616;27;20051;-77
2023/07/20 03:40:04;;;;;;;12.20;2.50;;;;;;;;;;5086188;27;20527;-77
2023/07/20 03:42:30;;;;;;;16.77;2.42;;;;;;;;;;5086170;27;22131;-77
2023/07/20 03:44:56;;;;;;;13.05;2.63;;;;;;;;;;5083384;27;20044;-77
2023/07/20 03:47:22;;;;;;;12.18;2.80;;;;;;;;;;5084193;27;20035;-77
2023/07/20 03:49:48;;;;;;;10.20;2.83;;;;;;;;;;5099686;27;20051;-77
2023/07/20 03:52:14;;;;;;;18.02;3.40;;;;;;;;;;5083949;27;20043;-77
2023/07/20 03:54:40;;;;;;;10.20;3.40;;;;;;;;;;5085030;27;20059;-77
2023/07/20 03:57:07;;;;;;;17.25;4.57;;;;;;;;;;5102312;27;20055;-76
2023/07/20 03:59:33;;;;;;;25.35;4.28;;;;;;;;;;5088919;27;20054;-74
2023/07/20 04:01:59;;;;;;;15.15;4.43;;;;;;;;;;5100193;27;20778;-74
2023/07/20 04:04:25;;;;;;;10.35;4.25;;;;;;;;;;5103910;27;20641;-75
2023/07/20 04:06:51;;;;;;;15.77;4.82;;;;;;;;;;5101771;27;20075;-74
2023/07/20 04:09:17;;;;;;;11.50;4.32;;;;;;;;;;5082621;27;20050;-74
2023/07/20 04:11:44;;;;;;;10.85;4.75;;;;;;;;;;5084921;27;20100;-74
2023/07/20 04:14:10;;;;;;;21.55;4.78;;;;;;;;;;5083417;27;20126;-74
2023/07/20 04:16:37;;;;;;;13.68;5.03;;;;;;;;;;5074545;27;20136;-75
2023/07/20 04:19:03;;;;;;;9.27;4.05;;;;;;;;;;5103654;27;20102;-75
2023/07/20 04:21:29;;;;;;;8.15;4.68;;;;;;;;;;5083400;27;20347;-75
2023/07/20 04:23:55;;;;;;;10.18;4.28;;;;;;;;;;5066237;27;20042;-75
2023/07/20 04:26:21;;;;;;;11.57;4.45;;;;;;;;;;5079315;27;20448;-75
2023/07/20 04:28:48;;;;;;;9.40;4.03;;;;;;;;;;5077458;27;20104;-75
2023/07/20 04:31:15;;;;;;;12.73;3.92;;;;;;;;;;5079622;27;20767;-75
2023/07/20 04:33:41;;;;;;;8.07;3.80;;;;;;;;;;5082447;27;20490;-75
2023/07/20 04:36:09;;;;;;;5.80;2.88;;;;;;;;;;5080939;27;20495;-75
2023/07/20 04:38:35;;;;;;;10.07;2.40;;;;;;;;;;5084396;27;20107;-76
2023/07/20 04:41:01;;;;;;;9.57;2.17;;;;;;;;;;5078848;27;20589;-75
2023/07/20 04:43:27;;;;;;;3.33;2.13;;;;;;;;;;5098249;27;20150;-76
2023/07/20 04:45:53;;;;;;;10.95;2.45;;;;;;;;;;5098777;27;20039;-76
2023/07/20 04:48:19;;;;;;;6.13;2.10;;;;;;;;;;5100320;27;20049;-76
2023/07/20 04:50:46;;;;;;;6.20;2.05;;;;;;;;;;5085608;27;20099;-75
2023/07/20 04:53:13;;;;;;;7.72;2.95;;;;;;;;;;5106810;27;20127;-76
2023/07/20 04:55:40;;;;;;;14.18;2.78;;;;;;;;;;5101188;27;20047;-75
2023/07/20 04:58:06;;;;;;;12.15;2.60;;;;;;;;;;5083653;27;20043;-76
2023/07/20 05:00:36;;;;;;;8.60;2.50;;;;;;;;;;5082676;27;21769;-75
2023/07/20 05:03:02;;;;;;;6.40;2.05;;;;;;;;;;5102445;27;20043;-76
2023/07/20 05:05:28;;;;;;;6.50;1.75;;;;;;;;;;5062195;27;20118;-75
2023/07/20 05:07:54;;;;;;;5.18;2.20;;;;;;;;;;5082446;27;20073;-76
2023/07/20 05:10:20;;;;;;;10.30;3.38;;;;;;;;;;5083269;27;20129;-76
2023/07/20 05:12:46;;;;;;;9.45;2.28;;;;;;;;;;5064485;27;20043;-76
2023/07/20 05:15:12;;;;;;;10.23;2.40;;;;;;;;;;5101974;27;20043;-76
2023/07/20 05:17:39;;;;;;;4.80;2.60;;;;;;;;;;5083335;27;20043;-76
2023/07/20 05:20:05;;;;;;;4.93;2.33;;;;;;;;;;5100144;27;20073;-76
2023/07/20 05:22:32;;;;;;;8.82;2.45;;;;;;;;;;5069216;27;20049;-76
2023/07/20 05:24:58;;;;;;;7.95;2.50;;;;;;;;;;5082504;27;20507;-76
2023/07/20 05:27:24;;;;;;;7.32;2.40;;;;;;;;;;5099673;27;20043;-77
2023/07/20 05:29:51;;;;;;;9.65;2.38;;;;;;;;;;5086307;27;20127;-76
2023/07/20 05:32:17;;;;;;;8.18;2.75;;;;;;;;;;5103532;27;20050;-77
2023/07/20 05:34:43;;;;;;;5.88;2.50;;;;;;;;;;5059614;27;20046;-77
2023/07/20 05:37:09;;;;;;;11.20;3.25;;;;;;;;;;5100593;27;20043;-76
2023/07/20 05:39:35;;;;;;;9.45;3.08;;;;;;;;;;5066009;27;20043;-76
2023/07/20 05:42:01;;;;;;;9.95;3.15;;;;;;;;;;5098022;27;20676;-75
2023/07/20 05:44:27;;;;;;;10.30;3.25;;;;;;;;;;5080236;27;20115;-76
2023/07/20 05:46:54;;;;;;;9.82;4.13;;;;;;;;;;5084693;27;20046;-76
2023/07/20 05:49:20;;;;;;;6.32;3.22;;;;;;;;;;5082081;27;20046;-75
2023/07/20 05:51:46;;;;;;;12.50;3.55;;;;;;;;;;5098459;27;20183;-75
2023/07/20 05:54:13;;;;;;;11.95;3.03;;;;;;;;;;5082395;27;20055;-75
2023/07/20 05:56:39;;;;;;;13.45;3.30;;;;;;;;;;5085190;27;20047;-76
2023/07/20 05:59:05;;;;;;;12.77;4.50;;;;;;;;;;5056527;27;20070;-75
2023/07/20 06:01:31;;;;;;;14.48;3.15;;;;;;;;;;5089567;27;20043;-75
2023/07/20 06:03:57;;;;;;;6.53;3.17;;;;;;;;;;5106787;27;20054;-75
2023/07/20 06:06:23;;;;;;;8.93;3.10;;;;;;;;;;5089649;27;20039;-75
2023/07/20 06:08:49;;;;;;;7.88;2.60;;;;;;;;;;5089297;27;20066;-75
2023/07/20 06:11:16;;;;;;;7.35;2.65;;;;;;;;;;5090299;27;20047;-75
2023/07/20 06:13:43;;;;;;;6.65;2.10;;;;;;;;;;5107623;27;20138;-75
2023/07/20 06:16:09;;;;;;;5.15;2.33;;;;;;;;;;5084557;27;20046;-76
2023/07/20 06:18:35;;;;;;;12.10;3.58;;;;;;;;;;5089405;27;20039;-75
2023/07/20 06:21:01;;;;;;;7.30;3.13;;;;;;;;;;5090291;27;20048;-75
2023/07/20 06:23:27;;;;;;;7.20;2.85;;;;;;;;;;5087844;27;20111;-75
2023/07/20 06:25:53;;;;;;;9.68;2.80;;;;;;;;;;5110003;27;20051;-75
2023/07/20 06:28:20;;;;;;;7.28;2.97;;;;;;;;;;5091674;27;20046;-75
2023/07/20 06:30:46;;;;;;;5.82;2.67;;;;;;;;;;5077570;27;20051;-75
2023/07/20 06:33:12;;;;;;;4.78;2.60;;;;;;;;;;5087734;27;20066;-76
2023/07/20 06:35:38;;;;;;;12.13;3.10;;;;;;;;;;5088422;27;20078;-76
2023/07/20 06:38:04;;;;;;;5.70;3.10;;;;;;;;;;5086420;27;20061;-75
2023/07/20 06:40:31;;;;;;;11.90;3.47;;;;;;;;;;5087641;27;20047;-75
2023/07/20 06:42:57;;;;;;;12.65;4.75;;;;;;;;;;5105285;27;20047;-74
2023/07/20 06:45:23;;;;;;;9.45;3.17;;;;;;;;;;5068908;27;20036;-74
2023/07/20 06:47:49;;;;;;;10.15;3.20;;;;;;;;;;5089023;27;20043;-76
2023/07/20 06:50:15;;;;;;;6.32;2.90;;;;;;;;;;5106345;27;20051;-76
2023/07/20 06:52:41;;;;;;;13.45;3.40;;;;;;;;;;5086432;27;20474;-76
2023/07/20 06:55:08;;;;;;;9.85;3.22;;;;;;;;;;5090223;27;20055;-76
2023/07/20 06:57:34;;;;;;;9.43;3.75;;;;;;;;;;5091606;27;20043;-76
2023/07/20 07:00:00;;;;;;;14.00;3.28;;;;;;;;;;5110136;27;20047;-76
2023/07/20 07:02:26;;;;;;;8.75;3.13;;;;;;;;;;5107294;27;20043;-76
2023/07/20 07:04:52;;;;;;;9.73;3.55;;;;;;;;;;5074856;27;20108;-76
2023/07/20 07:07:18;;;;;;;15.15;3.63;;;;;;;;;;5092843;27;20169;-75
2023/07/20 07:09:45;;;;;;;7.20;3.10;;;;;;;;;;5109191;27;20047;-76
2023/07/20 07:12:11;;;;;;;8.20;3.40;;;;;;;;;;5109418;27;20050;-76
2023/07/20 07:14:37;;;;;;;11.35;2.65;;;;;;;;;;5091164;27;20039;-76
2023/07/20 07:17:03;;;;;;;7.35;2.15;;;;;;;;;;5110478;27;20465;-75
2023/07/20 07:19:29;;;;;;;10.98;1.70;;;;;;;;;;5092114;27;20038;-76
2023/07/20 07:21:55;;;;;;;7.70;2.45;;;;;;;;;;5091829;27;20039;-76
2023/07/20 07:24:21;;;;;;;6.63;1.58;;;;;;;;;;5109254;27;20039;-76
2023/07/20 07:26:47;;;;;;;6.35;1.50;;;;;;;;;;5091476;27;20061;-75
2023/07/20 07:29:13;;;;;;;6.13;1.92;;;;;;;;;;5074573;27;20043;-76
2023/07/20 07:31:39;;;;;;;5.05;1.95;;;;;;;;;;5069202;27;20640;-76
2023/07/20 07:34:05;;;;;;;11.73;1.42;;;;;;;;;;5093080;27;20873;-76
2023/07/20 07:36:32;;;;;;;6.78;1.58;;;;;;;;;;5092720;27;20039;-76
2023/07/20 07:38:58;;;;;;;7.22;1.90;;;;;;;;;;5087178;27;20043;-76
2023/07/20 07:41:24;;;;;;;3.55;1.70;;;;;;;;;;5090757;27;20963;-76
2023/07/20 07:43:51;;;;;;;4.88;1.45;;;;;;;;;;5106515;27;20039;-77
2023/07/20 07:46:17;;;;;;;6.32;1.52;;;;;;;;;;5089358;27;20081;-77
2023/07/20 07:48:43;;;;;;;4.68;1.40;;;;;;;;;;5072211;27;20124;-77
2023/07/20 07:51:09;;;;;;;5.30;1.70;;;;;;;;;;5092009;27;20047;-77
2023/07/20 07:53:36;;;;;;;5.40;1.17;;;;;;;;;;5104996;27;20061;-77
2023/07/20 07:56:03;;;;;;;3.28;1.30;;;;;;;;;;5108652;27;20058;-77
2023/07/20 07:58:29;;;;;;;7.88;1.35;;;;;;;;;;5069144;27;20035;-77
2023/07/20 08:00:55;;;;;;;7.57;1.20;;;;;;;;;;5083256;27;20610;-74
2023/07/20 08:03:24;;;;;;;7.38;1.30;;;;;;;;;;5088642;27;20398;-77
2023/07/20 08:05:50;;;;;;;5.72;1.27;;;;;;;;;;5088829;27;20405;-77
2023/07/20 08:08:16;;;;;;;2.95;1.23;;;;;;;;;;5087990;27;20403;-77
2023/07/20 08:10:42;;;;;;;5.15;1.02;;;;;;;;;;5072887;27;20043;-77
2023/07/20 08:13:08;;;;;;;4.88;1.08;;;;;;;;;;5088885;27;20138;-77
2023/07/20 08:15:34;;;;;;;9.35;1.13;;;;;;;;;;5107453;27;20103;-77
2023/07/20 08:18:00;;;;;;;9.75;1.40;;;;;;;;;;5106514;27;20047;-77
2023/07/20 08:20:26;;;;;;;3.75;1.35;;;;;;;;;;5089052;27;20550;-76
2023/07/20 08:22:54;;;;;;;5.75;1.25;;;;;;;;;;5107021;27;21647;-76
2023/07/20 08:25:20;;;;;;;2.72;0.95;;;;;;;;;;5105922;27;20038;-76
2023/07/20 08:27:47;;;;;;;9.25;2.30;;;;;;;;;;5087817;27;20039;-77
2023/07/20 08:30:13;;;;;;;4.22;1.02;;;;;;;;;;5084093;27;20047;-77
2023/07/20 08:32:39;;;;;;;4.13;1.30;;;;;;;;;;5108229;27;20054;-77
2023/07/20 08:35:06;;;;;;;6.15;1.10;;;;;;;;;;5086323;27;20491;-77
2023/07/20 08:37:32;;;;;;;2.38;1.08;;;;;;;;;;5101954;27;20075;-77
2023/07/20 08:39:58;;;;;;;3.85;0.95;;;;;;;;;;5103342;27;20044;-77
2023/07/20 08:42:24;;;;;;;7.40;1.45;;;;;;;;;;5097862;27;20043;-77
2023/07/20 08:44:53;;;;;;;9.10;1.75;;;;;;;;;;5084729;27;20039;-77
2023/07/20 08:47:21;;;;;;;5.35;1.33;;;;;;;;;;5104838;27;20435;-76
2023/07/20 08:49:49;;;;;;;5.82;0.90;;;;;;;;;;5086428;27;20044;-77
2023/07/20 08:52:15;;;;;;;2.95;1.10;;;;;;;;;;5084447;27;20046;-75
2023/07/20 08:54:41;;;;;;;10.35;1.63;;;;;;;;;;5099980;27;20283;-75
2023/07/20 08:57:08;;;;;;;4.30;0.90;;;;;;;;;;5101034;27;21800;-76
2023/07/20 08:59:37;;;;;;;4.93;1.10;;;;;;;;;;5083587;27;20851;-75
2023/07/20 09:02:05;;;;;;;2.75;0.80;;;;;;;;;;5084871;27;20046;-75
2023/07/20 09:04:31;;;;;;;3.20;0.80;;;;;;;;;;5085185;27;20043;-76
2023/07/20 09:06:57;;;;;;;6.05;1.50;;;;;;;;;;5083800;27;20123;-75
2023/07/20 09:09:23;;;;;;;2.47;0.80;;;;;;;;;;5086639;27;20067;-75
2023/07/20 09:11:50;;;;;;;6.13;1.25;;;;;;;;;;5101644;27;20050;-75
2023/07/20 09:14:16;;;;;;;7.03;1.00;;;;;;;;;;5071299;27;20046;-75
2023/07/20 09:16:55;;;;;;;4.75;1.25;;;;;;;;;;5082634;27;20055;-76
2023/07/20 09:19:22;;;;;;;2.67;1.10;;;;;;;;;;5082833;27;20042;-75
2023/07/20 09:21:53;;;;;;;3.63;1.00;;;;;;;;;;5081806;27;20039;-75
2023/07/20 09:24:20;;;;;;;2.67;0.73;;;;;;;;;;5084586;27;20039;-75
2023/07/20 09:26:50;;;;;;;3.58;0.82;;;;;;;;;;5064112;27;20043;-75
2023/07/20 09:29:20;;;;;;;2.90;0.95;;;;;;;;;;5083839;27;20096;-75
2023/07/20 09:32:04;;;;;;;4.22;0.98;;;;;;;;;;5104836;27;20043;-75
2023/07/20 09:34:33;;;;;;;3.72;1.15;;;;;;;;;;5088484;27;20047;-75
2023/07/20 09:37:00;;;;;;;4.03;1.30;;;;;;;;;;5086970;27;20086;-75
2023/07/20 09:39:26;;;;;;;4.22;0.93;;;;;;;;;;5084615;28;20051;-75
2023/07/20 09:41:52;;;;;;;4.60;0.85;;;;;;;;;;5083347;28;20137;-75
2023/07/20 09:44:19;;;;;;;4.53;0.98;;;;;;;;;;5101402;27;20043;-75
2023/07/20 09:46:46;;;;;;;5.30;0.82;;;;;;;;;;5082685;28;20039;-75
2023/07/20 09:49:12;;;;;;;3.85;0.88;;;;;;;;;;5080426;28;20079;-76
2023/07/20 09:51:39;;;;;;;6.82;0.70;;;;;;;;;;5082638;28;20486;-76
2023/07/20 09:54:06;;;;;;;2.05;0.82;;;;;;;;;;5099838;27;20503;-75
2023/07/20 09:56:33;;;;;;;3.03;1.10;;;;;;;;;;5084093;28;20043;-74
2023/07/20 09:58:59;;;;;;;5.03;0.90;;;;;;;;;;5102716;27;20042;-75
2023/07/20 10:01:28;;;;;;;5.22;0.98;;;;;;;;;;5084433;28;20043;-75
2023/07/20 10:04:01;;;;;;;4.45;0.82;;;;;;;;;;5105664;27;20116;-75
2023/07/20 10:06:29;;;;;;;1.60;0.60;;;;;;;;;;5070406;28;20088;-74
2023/07/20 10:08:56;;;;;;;5.90;1.08;;;;;;;;;;5106212;27;20036;-75
2023/07/20 10:11:23;;;;;;;3.78;0.90;;;;;;;;;;5102257;27;20045;-74
2023/07/20 10:13:52;;;;;;;5.78;1.10;;;;;;;;;;5108053;27;20039;-76
2023/07/20 10:16:23;;;;;;;2.15;0.80;;;;;;;;;;5086505;28;20141;-76
2023/07/20 10:18:49;;;;;;;4.00;1.08;;;;;;;;;;5082725;28;20043;-76
2023/07/20 10:21:17;;;;;;;6.78;1.00;;;;;;;;;;5068724;27;20514;-76
2023/07/20 10:23:43;;;;;;;4.10;1.00;;;;;;;;;;5083812;28;20122;-75
2023/07/20 10:26:10;;;;;;;5.68;1.00;;;;;;;;;;5100081;27;20078;-77
2023/07/20 10:28:37;;;;;;;5.78;1.15;;;;;;;;;;5081759;28;20154;-75
2023/07/20 10:31:03;;;;;;;2.30;0.80;;;;;;;;;;5102432;27;20039;-76
2023/07/20 10:33:29;;;;;;;5.00;1.13;;;;;;;;;;5097930;27;20050;-75
2023/07/20 10:35:56;;;;;;;3.05;0.80;;;;;;;;;;5100049;27;20395;-76
2023/07/20 10:38:58;;;;;;;4.72;1.13;;;;;;;;;;5080617;28;20063;-76
2023/07/20 10:41:30;;;;;;;3.50;0.80;;;;;;;;;;4965803;28;20079;-76
2023/07/20 10:43:59;;;;;;;3.88;0.70;;;;;;;;;;5048951;27;20062;-77
2023/07/20 10:46:40;;;;;;;2.60;0.88;;;;;;;;;;5098619;27;20163;-76
2023/07/20 10:49:07;;;;;;;4.68;0.90;;;;;;;;;;5097400;27;20053;-76
2023/07/20 10:51:44;;;;;;;2.17;0.80;;;;;;;;;;5083086;28;20039;-76
2023/07/20 10:54:30;;;;;;;3.67;1.02;;;;;;;;;;5104614;27;20094;-77
2023/07/20 10:56:57;;;;;;;3.72;0.90;;;;;;;;;;5091566;27;20058;-77
2023/07/20 10:59:32;;;;;;;2.17;0.77;;;;;;;;;;5091638;27;20478;-77
2023/07/20 11:02:01;;;;;;;2.88;1.15;;;;;;;;;;5091331;27;20039;-77
2023/07/20 11:04:43;;;;;;;3.60;0.90;;;;;;;;;;5073454;27;20043;-76
2023/07/20 11:07:10;;;;;;;3.60;0.80;;;;;;;;;;5090196;27;20136;-76
2023/07/20 11:09:39;;;;;;;2.83;0.80;;;;;;;;;;5075213;27;20400;-76
2023/07/20 11:12:15;;;;;;;6.90;1.20;;;;;;;;;;5092045;27;20051;-78
2023/07/20 11:14:54;;;;;;;4.57;1.25;;;;;;;;;;5107864;27;20534;-78
2023/07/20 11:17:22;;;;;;;6.22;0.95;;;;;;;;;;5087982;27;20137;-77
2023/07/20 11:19:56;;;;;;;2.20;0.80;;;;;;;;;;5105155;27;20043;-76
2023/07/20 11:22:22;;;;;;;3.17;1.00;;;;;;;;;;5105850;27;20036;-76
2023/07/20 11:24:51;;;;;;;1.98;0.70;;;;;;;;;;5105541;27;20406;-77
2023/07/20 11:27:22;;;;;;;2.53;0.85;;;;;;;;;;5089743;27;20027;-77
2023/07/20 11:29:49;;;;;;;5.18;0.65;;;;;;;;;;5106425;27;20096;-77
2023/07/20 11:32:22;;;;;;;1.52;0.95;;;;;;;;;;5089262;27;20051;-77
2023/07/20 11:34:49;;;;;;;1.53;0.63;;;;;;;;;;5086827;27;20146;-79
2023/07/20 11:37:15;;;;;;;2.35;0.73;;;;;;;;;;5087671;27;20637;-77
2023/07/20 11:39:41;;;;;;;2.42;0.80;;;;;;;;;;5066622;27;20131;-76
2023/07/20 11:42:07;;;;;;;2.60;0.80;;;;;;;;;;5087974;27;20039;-76
2023/07/20 11:44:33;;;;;;;2.83;0.75;;;;;;;;;;5105429;27;20086;-77
2023/07/20 11:47:01;;;;;;;1.85;0.60;;;;;;;;;;5083855;27;20051;-77
2023/07/20 11:49:27;;;;;;;4.32;0.95;;;;;;;;;;5084502;27;20039;-78
2023/07/20 11:51:53;;;;;;;3.90;0.90;;;;;;;;;;5085861;27;21852;-77
2023/07/20 11:54:19;;;;;;;4.10;0.73;;;;;;;;;;5090382;27;20055;-77
2023/07/20 11:56:46;;;;;;;3.55;0.90;;;;;;;;;;5108745;27;20051;-77
2023/07/20 11:59:12;;;;;;;5.35;0.82;;;;;;;;;;5090831;27;20049;-77
2023/07/20 12:01:38;;;;;;;2.83;0.77;;;;;;;;;;5086905;27;20039;-77
2023/07/20 12:04:04;;;;;;;4.20;0.90;;;;;;;;;;5086311;27;20047;-77
2023/07/20 12:06:31;;;;;;;1.83;0.93;;;;;;;;;;5087786;27;20035;-77
2023/07/20 12:08:57;;;;;;;2.40;0.85;;;;;;;;;;5103897;27;20659;-77
2023/07/20 12:11:37;;;;;;;3.65;0.70;;;;;;;;;;5086595;27;20043;-77
2023/07/20 12:14:03;;;;;;;3.47;1.00;;;;;;;;;;5087425;27;20074;-77
2023/07/20 12:16:30;;;;;;;4.53;0.70;;;;;;;;;;5103217;27;20497;-77
2023/07/20 12:19:02;;;;;;;1.67;0.82;;;;;;;;;;5104542;27;20034;-77
2023/07/20 12:21:28;;;;;;;4.43;1.02;;;;;;;;;;5083753;27;20051;-77
2023/07/20 12:23:56;;;;;;;2.30;0.93;;;;;;;;;;5084227;27;20487;-78
2023/07/20 12:26:23;;;;;;;5.15;0.88;;;;;;;;;;5101903;27;20552;-77
2023/07/20 12:28:50;;;;;;;3.08;0.90;;;;;;;;;;5088598;27;20047;-78
2023/07/20 12:31:16;;;;;;;1.40;0.50;;;;;;;;;;5107502;27;20051;-78
2023/07/20 12:33:42;;;;;;;4.22;0.70;;;;;;;;;;5086730;27;20039;-77
2023/07/20 12:36:09;;;;;;;2.50;0.65;;;;;;;;;;5105709;27;20417;-78
2023/07/20 12:38:35;;;;;;;2.10;0.80;;;;;;;;;;5086654;27;20501;-78
2023/07/20 12:41:02;;;;;;;2.05;0.73;;;;;;;;;;5106973;27;20122;-77
2023/07/20 12:43:29;;;;;;;2.53;0.80;;;;;;;;;;5106603;27;20546;-78
2023/07/20 12:45:55;;;;;;;2.45;0.75;;;;;;;;;;5109055;27;20043;-78
2023/07/20 12:48:23;;;;;;;2.85;0.55;;;;;;;;;;5109034;27;20451;-77
2023/07/20 12:50:49;;;;;;;6.88;0.98;;;;;;;;;;5107572;27;20138;-76
2023/07/20 12:53:16;;;;;;;4.57;0.80;;;;;;;;;;5089186;27;20063;-78
2023/07/20 12:55:42;;;;;;;2.90;1.05;;;;;;;;;;5093153;27;20121;-77
2023/07/20 12:58:08;;;;;;;3.05;0.70;;;;;;;;;;5090522;27;20505;-77
2023/07/20 13:00:35;;;;;;;2.72;0.90;;;;;;;;;;5090509;27;20122;-77
2023/07/20 13:03:04;;;;;;;1.30;0.60;;;;;;;;;;5102847;27;20047;-78
2023/07/20 13:05:31;;;;;;;1.95;0.80;;;;;;;;;;5086715;27;20035;-77
2023/07/20 13:07:58;;;;;;;2.40;0.90;;;;;;;;;;5084494;27;20051;-77
2023/07/20 13:10:24;;;;;;;3.40;1.10;;;;;;;;;;5102934;27;20051;-78
2023/07/20 13:12:50;;;;;;;6.45;1.00;;;;;;;;;;5103966;27;20039;-77
2023/07/20 13:15:17;;;;;;;4.95;1.00;;;;;;;;;;5084633;27;20042;-75
2023/07/20 13:17:43;;;;;;;3.22;0.70;;;;;;;;;;5070736;27;20107;-76
2023/07/20 13:20:10;;;;;;;1.85;0.70;;;;;;;;;;5102880;27;20113;-76
2023/07/20 13:22:37;;;;;;;0.57;0.50;;;;;;;;;;5104460;27;20043;-76
2023/07/20 13:25:03;;;;;;;3.47;0.75;;;;;;;;;;5082117;27;20043;-76
2023/07/20 13:27:31;;;;;;;1.98;0.80;;;;;;;;;;5103524;27;20458;-77
2023/07/20 13:29:57;;;;;;;1.83;0.65;;;;;;;;;;5103300;27;20129;-76
2023/07/20 13:32:23;;;;;;;5.40;0.93;;;;;;;;;;5102779;27;20049;-76
2023/07/20 13:34:49;;;;;;;1.50;0.60;;;;;;;;;;5074684;27;20051;-76
2023/07/20 13:37:16;;;;;;;2.70;1.23;;;;;;;;;;5086361;27;20042;-76
2023/07/20 13:39:43;;;;;;;2.95;0.90;;;;;;;;;;5078164;27;20095;-76
2023/07/20 13:42:10;;;;;;;4.55;1.17;;;;;;;;;;5102783;27;20467;-75
2023/07/20 13:44:37;;;;;;;4.32;0.70;;;;;;;;;;5096451;27;20392;-75
2023/07/20 13:47:05;;;;;;;1.55;0.63;;;;;;;;;;5105384;27;20043;-75
2023/07/20 13:49:32;;;;;;;4.47;0.75;;;;;;;;;;5106744;27;20418;-76
2023/07/20 13:51:58;;;;;;;0.93;0.70;;;;;;;;;;5071335;27;20051;-77
2023/07/20 13:54:24;;;;;;;3.92;0.95;;;;;;;;;;5086290;27;20177;-75
2023/07/20 13:56:51;;;;;;;3.80;0.80;;;;;;;;;;5105401;27;20050;-74
2023/07/20 13:59:18;;;;;;;2.85;0.70;;;;;;;;;;5106395;27;20043;-74
2023/07/20 14:01:44;;;;;;;4.40;0.70;;;;;;;;;;5089321;28;20043;-74
2023/07/20 14:04:10;;;;;;;1.90;0.77;;;;;;;;;;5106143;27;20043;-75
2023/07/20 14:06:36;;;;;;;3.85;0.88;;;;;;;;;;5068180;28;20870;-75
2023/07/20 14:09:03;;;;;;;3.45;1.08;;;;;;;;;;5104541;27;20052;-75
2023/07/20 14:11:29;;;;;;;4.60;0.90;;;;;;;;;;5087517;28;20684;-74
2023/07/20 14:13:58;;;;;;;1.05;0.63;;;;;;;;;;5103754;27;20044;-76
2023/07/20 14:16:24;;;;;;;3.75;0.80;;;;;;;;;;5105315;27;20556;-75
2023/07/20 14:18:50;;;;;;;2.60;0.70;;;;;;;;;;5104564;27;20502;-75
2023/07/20 14:21:17;;;;;;;1.95;0.70;;;;;;;;;;5086917;28;20586;-75
2023/07/20 14:23:46;;;;;;;3.80;0.77;;;;;;;;;;5087729;28;20047;-75
2023/07/20 14:26:12;;;;;;;3.03;1.00;;;;;;;;;;5083511;27;20520;-76
2023/07/20 14:28:38;;;;;;;3.53;0.90;;;;;;;;;;5102410;27;20054;-75
2023/07/20 14:31:04;;;;;;;3.72;1.05;;;;;;;;;;5106968;27;20132;-75
2023/07/20 14:33:31;;;;;;;3.20;0.95;;;;;;;;;;5085930;27;20044;-75
2023/07/20 14:35:57;;;;;;;4.47;1.08;;;;;;;;;;5089957;27;20050;-75
2023/07/20 14:38:23;;;;;;;2.67;1.05;;;;;;;;;;5091748;27;20047;-75
2023/07/20 14:40:50;;;;;;;2.75;1.15;;;;;;;;;;5092265;27;20047;-76